KHLB/HLB METAR and TAF weather

Enter ICAO airport designator
Station Type Date Time Source
KHLB METAR 2024/04/23 04:15 UTC NOAA

KHLB 230415Z AUTO 00000KT 10SM CLR 10/01 A3005 RMK A01


Station Type Date Time Source
KHLB Decoded METAR 2024/04/23 04:15 UTC NOAA

Station name not available
Apr 23, 2024 - 12:15 AM EDT / 2024.04.23 0415 UTC
Wind: Calm:0
Visibility: 10 mile(s):0
Sky conditions: clear
Temperature: 50 F (10 C)
Dew Point: 33 F (1 C)
Relative Humidity: 53%
Pressure (altimeter): 30.05 in. Hg (1017 hPa)
ob: KHLB 230415Z AUTO 00000KT 10SM CLR 10/01 A3005 RMK A01
cycle: 4

Station Type Date Time Source
KHLB TAF UTC NOAA

Error!

Example: see airport list